createdAt,value
2023-05-22T00:02:08.281Z,5.70
2023-05-22T00:04:35.405Z,5.50
2023-05-22T00:07:02.158Z,5.10
2023-05-22T00:09:28.887Z,6.00
2023-05-22T00:11:56.816Z,5.50
2023-05-22T00:14:23.606Z,6.30
2023-05-22T00:16:50.498Z,5.60
2023-05-22T00:19:21.117Z,5.60
2023-05-22T00:21:47.946Z,5.60
2023-05-22T00:24:14.670Z,5.40
2023-05-22T00:26:41.491Z,5.60
2023-05-22T00:29:08.449Z,5.40
2023-05-22T00:31:35.296Z,6.10
2023-05-22T00:34:02.114Z,5.80
2023-05-22T00:36:29.086Z,5.20
2023-05-22T00:38:56.224Z,5.30
2023-05-22T00:41:23.036Z,5.70
2023-05-22T00:43:51.515Z,5.10
2023-05-22T00:46:21.698Z,5.70
2023-05-22T00:48:49.239Z,4.90
2023-05-22T00:51:16.071Z,5.10
2023-05-22T00:53:43.504Z,5.60
2023-05-22T00:56:10.350Z,5.10
2023-05-22T00:58:37.715Z,5.20
2023-05-22T01:01:07.097Z,5.80
2023-05-22T01:03:35.813Z,5.70
2023-05-22T01:06:03.157Z,5.70
2023-05-22T01:08:29.910Z,5.40
2023-05-22T01:11:22.397Z,5.60
2023-05-22T01:14:01.196Z,5.60
2023-05-22T01:16:50.429Z,5.40
2023-05-22T01:19:54.313Z,5.20
2023-05-22T01:22:36.142Z,5.20
2023-05-22T01:28:08.001Z,5.00
2023-05-22T01:30:45.891Z,5.40
2023-05-22T01:33:14.870Z,5.20
2023-05-22T01:35:41.865Z,5.90
2023-05-22T01:38:08.660Z,5.50
2023-05-22T01:40:36.701Z,5.10
2023-05-22T01:43:04.271Z,4.90
2023-05-22T01:45:31.842Z,5.20
2023-05-22T01:47:58.917Z,5.20
2023-05-22T01:50:26.581Z,5.20
2023-05-22T01:53:08.761Z,5.00
2023-05-22T01:56:00.990Z,5.60
2023-05-22T01:59:01.728Z,5.20
2023-05-22T02:03:58.292Z,4.60
2023-05-22T02:06:29.175Z,5.10
2023-05-22T02:08:56.127Z,4.90
2023-05-22T02:11:22.994Z,5.50
2023-05-22T02:13:49.894Z,5.30
2023-05-22T02:16:19.418Z,5.00
2023-05-22T02:18:46.667Z,5.50
2023-05-22T02:21:13.424Z,5.10
2023-05-22T02:23:40.616Z,5.60
2023-05-22T02:26:08.410Z,6.10
2023-05-22T02:28:35.870Z,5.50
2023-05-22T02:31:03.819Z,5.90
2023-05-22T02:33:30.991Z,6.00
2023-05-22T02:35:57.771Z,6.30
2023-05-22T02:38:24.568Z,5.60
2023-05-22T02:40:52.137Z,5.60
2023-05-22T02:43:18.975Z,6.00
2023-05-22T02:45:46.001Z,5.50
2023-05-22T02:48:13.317Z,5.30
2023-05-22T02:50:40.512Z,5.80
2023-05-22T02:53:08.590Z,4.80
2023-05-22T02:55:36.054Z,5.90
2023-05-22T02:58:03.419Z,5.80
2023-05-22T03:00:30.533Z,5.50
2023-05-22T03:02:57.466Z,5.60
2023-05-22T03:05:24.358Z,6.00
2023-05-22T03:07:52.918Z,4.90
2023-05-22T03:10:19.869Z,5.50
2023-05-22T03:12:46.672Z,5.70
2023-05-22T03:15:13.862Z,5.00
2023-05-22T03:17:41.076Z,5.50
2023-05-22T03:20:10.623Z,5.20
2023-05-22T03:22:37.481Z,5.10
2023-05-22T03:25:06.466Z,4.60
2023-05-22T03:27:33.354Z,5.20
2023-05-22T03:30:06.121Z,5.70
2023-05-22T03:32:37.563Z,5.20
2023-05-22T03:35:05.759Z,5.20
2023-05-22T03:37:32.563Z,4.60
2023-05-22T03:39:59.940Z,5.00
2023-05-22T03:42:29.657Z,5.50
2023-05-22T03:44:56.695Z,4.90
2023-05-22T03:47:24.318Z,4.20
2023-05-22T03:49:51.696Z,4.90
2023-05-22T03:52:18.480Z,4.90
2023-05-22T03:54:45.467Z,5.00
2023-05-22T03:57:12.281Z,4.60
2023-05-22T03:59:39.145Z,4.60
2023-05-22T04:02:06.018Z,4.60
2023-05-22T04:04:38.540Z,4.60
2023-05-22T04:07:08.352Z,4.50
2023-05-22T04:09:35.575Z,4.80
2023-05-22T04:12:02.675Z,4.10
2023-05-22T04:14:29.539Z,4.80
2023-05-22T04:16:56.320Z,4.00
2023-05-22T04:19:23.561Z,4.30
2023-05-22T04:21:50.407Z,4.20
2023-05-22T04:24:18.481Z,3.80
2023-05-22T04:26:45.302Z,3.90
2023-05-22T04:29:14.603Z,4.10
2023-05-22T04:31:42.224Z,3.70
2023-05-22T04:34:15.327Z,3.90
2023-05-22T04:36:45.332Z,3.60
2023-05-22T04:39:14.060Z,3.70
2023-05-22T04:41:41.185Z,3.80
2023-05-22T04:44:08.263Z,3.40
2023-05-22T04:46:36.118Z,3.60
2023-05-22T04:49:03.397Z,3.50
2023-05-22T04:51:31.429Z,4.20
2023-05-22T04:53:58.549Z,3.70
2023-05-22T04:56:35.342Z,4.10
2023-05-22T04:59:05.685Z,3.60
2023-05-22T05:01:35.207Z,4.00
2023-05-22T05:04:03.249Z,3.80
2023-05-22T05:06:30.274Z,4.00
2023-05-22T05:08:57.205Z,4.20
2023-05-22T05:11:24.434Z,3.80
2023-05-22T05:13:51.240Z,3.90
2023-05-22T05:16:19.464Z,4.60
2023-05-22T05:18:46.329Z,4.30
2023-05-22T05:21:13.136Z,3.70
2023-05-22T05:23:40.000Z,4.40
2023-05-22T05:26:10.010Z,4.00
2023-05-22T05:28:37.415Z,4.00
2023-05-22T05:31:05.583Z,4.40
2023-05-22T05:34:08.049Z,4.10
2023-05-22T05:36:52.571Z,4.00
2023-05-22T05:39:22.304Z,4.10
2023-05-22T05:41:50.016Z,4.30
2023-05-22T05:44:16.868Z,4.00
2023-05-22T05:46:43.777Z,3.50
2023-05-22T05:49:16.576Z,3.80
2023-05-22T05:51:43.480Z,3.80
2023-05-22T05:54:11.365Z,3.60
2023-05-22T05:56:38.847Z,4.00
2023-05-22T05:59:05.961Z,3.80
2023-05-22T06:01:39.908Z,3.90
2023-05-22T06:04:10.322Z,3.60
2023-05-22T06:06:39.322Z,4.00
2023-05-22T06:09:15.123Z,3.40
2023-05-22T06:12:12.966Z,3.80
2023-05-22T06:14:41.461Z,4.10
2023-05-22T06:17:11.178Z,3.90
2023-05-22T06:19:39.504Z,3.50
2023-05-22T06:22:06.505Z,3.60
2023-05-22T06:24:33.937Z,4.10
2023-05-22T06:27:05.706Z,3.70
2023-05-22T06:29:32.447Z,3.70
2023-05-22T06:31:59.332Z,4.30
2023-05-22T06:34:27.702Z,2.90
2023-05-22T06:36:56.419Z,3.40
2023-05-22T06:39:25.163Z,2.90
2023-05-22T06:42:06.782Z,3.00
2023-05-22T06:44:53.934Z,3.20
2023-05-22T06:47:21.157Z,3.10
2023-05-22T06:49:47.932Z,3.30
2023-05-22T06:52:15.449Z,2.80
2023-05-22T06:54:43.997Z,3.20
2023-05-22T06:57:11.924Z,3.00
2023-05-22T06:59:38.950Z,2.60
2023-05-22T07:02:07.128Z,2.60
2023-05-22T07:04:52.524Z,2.80
2023-05-22T07:07:36.575Z,2.60
2023-05-22T07:10:03.612Z,2.50
2023-05-22T07:12:31.651Z,2.60
2023-05-22T07:15:00.385Z,2.50
2023-05-22T07:17:28.231Z,2.80
2023-05-22T07:19:56.365Z,2.40
2023-05-22T07:22:23.493Z,2.30
2023-05-22T07:24:50.547Z,2.60
2023-05-22T07:27:18.015Z,2.50
2023-05-22T07:29:46.030Z,2.70
2023-05-22T07:32:12.844Z,2.40
2023-05-22T07:34:41.552Z,2.60
2023-05-22T07:37:09.175Z,2.30
2023-05-22T07:39:36.252Z,2.40
2023-05-22T07:43:12.678Z,2.40
2023-05-22T07:45:40.526Z,2.40
2023-05-22T07:48:09.237Z,3.00
2023-05-22T07:50:36.276Z,2.20
2023-05-22T07:53:04.619Z,2.10
2023-05-22T07:55:32.581Z,2.10
2023-05-22T07:57:59.676Z,1.80
2023-05-22T08:00:32.429Z,1.90
2023-05-22T08:02:59.411Z,2.10
2023-05-22T08:05:26.690Z,2.00
2023-05-22T08:07:55.006Z,1.80
2023-05-22T08:10:22.017Z,2.00
2023-05-22T08:12:48.769Z,1.80
2023-05-22T08:15:15.633Z,2.00
2023-05-22T08:17:42.434Z,1.80
2023-05-22T08:20:10.327Z,2.30
2023-05-22T08:22:39.021Z,1.90
2023-05-22T08:25:06.456Z,1.70
2023-05-22T08:27:33.206Z,2.00
2023-05-22T08:30:00.172Z,1.90
2023-05-22T08:32:28.633Z,2.10
2023-05-22T08:34:56.653Z,1.90
2023-05-22T08:37:23.423Z,1.90
2023-05-22T08:39:50.308Z,1.80
2023-05-22T08:42:17.048Z,1.90
2023-05-22T08:44:43.831Z,1.90
2023-05-22T08:47:11.275Z,1.90
2023-05-22T08:49:38.949Z,1.80
2023-05-22T08:52:21.809Z,1.90
2023-05-22T08:54:53.223Z,1.60
2023-05-22T08:57:20.611Z,1.50
2023-05-22T08:59:47.424Z,1.70
2023-05-22T09:02:14.274Z,1.80
2023-05-22T09:04:41.568Z,1.70
2023-05-22T09:07:09.220Z,1.60
2023-05-22T09:09:39.164Z,1.70
2023-05-22T09:12:09.148Z,1.80
2023-05-22T09:14:41.036Z,1.70
2023-05-22T09:17:09.563Z,1.90
2023-05-22T09:19:36.515Z,1.90
2023-05-22T09:22:05.030Z,2.20
2023-05-22T09:24:32.462Z,1.70
2023-05-22T09:27:03.330Z,1.60
2023-05-22T09:29:30.211Z,2.20
2023-05-22T09:31:59.565Z,1.80
2023-05-22T09:34:30.698Z,1.70
2023-05-22T09:37:06.531Z,1.70
2023-05-22T09:39:43.436Z,1.70
2023-05-22T09:42:12.873Z,1.70
2023-05-22T09:44:39.586Z,1.80
2023-05-22T09:47:06.644Z,1.60
2023-05-22T09:49:42.763Z,2.00
2023-05-22T09:52:10.108Z,1.80
2023-05-22T09:54:37.220Z,1.80
2023-05-22T09:57:04.652Z,1.70
2023-05-22T09:59:33.187Z,1.80
2023-05-22T10:02:02.499Z,1.70
2023-05-22T10:04:30.730Z,1.60
2023-05-22T10:06:57.590Z,2.10
2023-05-22T10:09:26.297Z,1.80
2023-05-22T10:11:54.151Z,1.80
2023-05-22T10:14:20.988Z,1.80
2023-05-22T10:16:47.844Z,1.70
2023-05-22T10:19:14.646Z,1.80
2023-05-22T10:21:41.531Z,1.60
2023-05-22T10:24:08.339Z,2.20
2023-05-22T10:26:35.167Z,1.80
2023-05-22T10:29:13.931Z,1.60
2023-05-22T10:32:01.067Z,1.80
2023-05-22T10:34:38.930Z,2.10
2023-05-22T10:37:27.106Z,1.70
2023-05-22T10:40:12.053Z,2.40
2023-05-22T10:42:38.920Z,1.80
2023-05-22T10:45:09.414Z,1.90
2023-05-22T10:47:36.517Z,1.70
2023-05-22T10:50:11.254Z,1.90
2023-05-22T10:52:38.709Z,2.10
2023-05-22T10:55:09.438Z,1.60
2023-05-22T10:57:40.159Z,1.90
2023-05-22T11:00:11.892Z,2.00
2023-05-22T11:02:40.616Z,2.00
2023-05-22T11:05:22.778Z,2.00
2023-05-22T11:07:49.611Z,1.40
2023-05-22T11:10:45.858Z,2.00
2023-05-22T11:13:12.731Z,1.80
2023-05-22T11:15:43.827Z,2.20
2023-05-22T11:18:11.426Z,1.90
2023-05-22T11:20:40.151Z,1.70
2023-05-22T11:23:07.920Z,1.50
2023-05-22T11:25:35.564Z,1.70
2023-05-22T11:28:07.110Z,1.70
2023-05-22T11:30:34.234Z,1.70
2023-05-22T11:33:01.649Z,1.90
2023-05-22T11:35:29.958Z,1.90
2023-05-22T11:37:57.148Z,1.90
2023-05-22T11:40:25.817Z,1.90
2023-05-22T11:42:53.558Z,1.70
2023-05-22T11:45:20.595Z,1.70
2023-05-22T11:47:48.562Z,2.10
2023-05-22T11:50:22.742Z,1.60
2023-05-22T11:52:56.685Z,1.70
2023-05-22T11:55:24.731Z,1.80
2023-05-22T11:57:52.169Z,2.30
2023-05-22T12:00:20.502Z,2.40
2023-05-22T12:02:48.012Z,1.70
2023-05-22T12:05:16.683Z,1.60
2023-05-22T12:07:44.207Z,2.80
2023-05-22T12:10:12.410Z,2.10
2023-05-22T12:12:39.821Z,1.50
2023-05-22T12:15:07.676Z,1.70
2023-05-22T12:17:38.936Z,1.40
2023-05-22T12:20:07.293Z,3.00
2023-05-22T12:22:40.919Z,4.00
2023-05-22T12:25:14.182Z,2.90
2023-05-22T12:27:41.536Z,2.50
2023-05-22T12:30:10.686Z,2.80
2023-05-22T12:32:39.767Z,1.70
2023-05-22T12:35:14.556Z,1.90
2023-05-22T12:37:48.142Z,1.80
2023-05-22T12:40:16.018Z,1.40
2023-05-22T12:42:45.033Z,1.90
2023-05-22T12:45:13.529Z,1.80
2023-05-22T12:47:40.869Z,1.70
2023-05-22T12:50:08.764Z,1.70
2023-05-22T12:52:36.302Z,2.00
2023-05-22T12:55:04.705Z,1.90
2023-05-22T12:57:32.025Z,1.90
2023-05-22T12:59:59.400Z,1.70
2023-05-22T13:02:26.873Z,1.40
2023-05-22T13:04:54.255Z,1.80
2023-05-22T13:07:21.664Z,1.70
2023-05-22T13:09:48.982Z,1.80
2023-05-22T13:12:16.496Z,1.40
2023-05-22T13:14:44.245Z,2.50
2023-05-22T13:17:11.870Z,2.90
2023-05-22T13:19:39.347Z,2.10
2023-05-22T13:22:07.717Z,1.90
2023-05-22T13:24:35.130Z,1.70
2023-05-22T13:27:02.613Z,2.40
2023-05-22T13:29:29.944Z,2.00
2023-05-22T13:31:57.261Z,2.10
2023-05-22T13:34:24.754Z,2.50
2023-05-22T13:36:52.483Z,2.20
2023-05-22T13:39:19.860Z,2.00
2023-05-22T13:41:47.270Z,2.30
2023-05-22T13:44:14.866Z,1.60
2023-05-22T13:46:42.239Z,1.70
2023-05-22T13:49:09.631Z,2.00
2023-05-22T13:51:38.010Z,1.80
2023-05-22T13:54:06.227Z,1.80
2023-05-22T13:56:33.760Z,1.70
2023-05-22T13:59:01.602Z,2.20
2023-05-22T14:01:29.372Z,1.70
2023-05-22T14:03:56.826Z,2.10
2023-05-22T14:06:25.202Z,2.20
2023-05-22T14:08:52.920Z,2.10
2023-05-22T14:11:21.834Z,2.30
2023-05-22T14:13:50.123Z,2.30
2023-05-22T14:16:17.622Z,2.20
2023-05-22T14:18:45.002Z,4.80
2023-05-22T14:21:12.492Z,4.70
2023-05-22T14:23:39.842Z,2.70
2023-05-22T14:26:07.108Z,3.30
2023-05-22T14:28:34.432Z,2.00
2023-05-22T14:31:01.910Z,3.40
2023-05-22T14:33:30.682Z,2.10
2023-05-22T14:35:57.989Z,2.50
2023-05-22T14:38:26.302Z,2.10
2023-05-22T14:40:53.692Z,2.20
2023-05-22T14:43:21.038Z,1.50
2023-05-22T14:45:48.362Z,1.80
2023-05-22T14:48:16.115Z,2.10
2023-05-22T14:50:43.587Z,2.50
2023-05-22T14:53:11.692Z,2.10
2023-05-22T14:55:39.153Z,2.20
2023-05-22T14:58:06.669Z,2.40
2023-05-22T15:00:34.002Z,2.20
2023-05-22T15:03:02.928Z,1.90
2023-05-22T15:05:30.657Z,2.10
2023-05-22T15:07:58.716Z,2.00
2023-05-22T15:10:26.297Z,2.40
2023-05-22T15:12:53.890Z,2.40
2023-05-22T15:15:21.297Z,1.90
2023-05-22T15:17:48.734Z,1.90
2023-05-22T15:20:16.207Z,2.00
2023-05-22T15:22:43.518Z,2.30
2023-05-22T15:25:12.482Z,2.70
2023-05-22T15:27:39.800Z,2.50
2023-05-22T15:30:09.765Z,3.10
2023-05-22T15:32:37.596Z,2.50
2023-05-22T15:35:06.714Z,2.40
2023-05-22T15:37:34.327Z,2.10
2023-05-22T15:40:04.082Z,2.10
2023-05-22T15:42:31.662Z,2.40
2023-05-22T15:45:01.319Z,2.30
2023-05-22T15:47:29.773Z,2.10
2023-05-22T15:49:57.138Z,2.20
2023-05-22T15:52:24.659Z,2.10
2023-05-22T15:54:52.866Z,2.40
2023-05-22T15:57:20.582Z,2.10
2023-05-22T15:59:51.130Z,2.00
2023-05-22T16:02:18.932Z,2.40
2023-05-22T16:04:46.635Z,2.20
2023-05-22T16:07:13.953Z,2.50
2023-05-22T16:09:43.335Z,2.20
2023-05-22T16:12:10.695Z,2.30
2023-05-22T16:14:40.056Z,2.30
2023-05-22T16:17:07.902Z,2.20
2023-05-22T16:19:35.329Z,2.50
2023-05-22T16:22:03.588Z,2.50
2023-05-22T16:24:30.998Z,2.30
2023-05-22T16:26:59.433Z,2.40
2023-05-22T16:29:26.859Z,2.70
2023-05-22T16:31:54.331Z,2.70
2023-05-22T16:34:21.885Z,2.60
2023-05-22T16:36:49.219Z,2.80
2023-05-22T16:39:16.918Z,2.70
2023-05-22T16:41:44.602Z,2.70
2023-05-22T16:44:12.147Z,2.70
2023-05-22T16:46:39.515Z,2.70
2023-05-22T16:49:07.010Z,3.00
2023-05-22T16:51:34.449Z,2.80
2023-05-22T16:54:01.749Z,2.70
2023-05-22T16:56:34.193Z,2.90
2023-05-22T16:59:02.194Z,3.30
2023-05-22T17:01:29.846Z,2.90
2023-05-22T17:03:57.349Z,3.30
2023-05-22T17:06:24.885Z,3.20
2023-05-22T17:08:52.776Z,3.00
2023-05-22T17:11:20.436Z,3.20
2023-05-22T17:13:47.771Z,3.30
2023-05-22T17:16:15.129Z,3.60
2023-05-22T17:18:43.027Z,3.10
2023-05-22T17:21:10.762Z,3.30
2023-05-22T17:23:38.968Z,3.40
2023-05-22T17:26:06.492Z,3.70
2023-05-22T17:28:33.882Z,3.50
2023-05-22T17:31:01.290Z,3.70
2023-05-22T17:33:28.719Z,3.50
2023-05-22T17:35:56.515Z,2.90
2023-05-22T17:38:23.826Z,3.20
2023-05-22T17:40:52.263Z,2.70
2023-05-22T17:43:20.058Z,3.90
2023-05-22T17:45:50.652Z,3.60
2023-05-22T17:48:27.295Z,3.10
2023-05-22T17:50:54.935Z,3.90
2023-05-22T17:53:22.519Z,4.00
2023-05-22T17:55:52.350Z,3.10
2023-05-22T17:58:20.705Z,3.20
2023-05-22T18:00:48.988Z,3.60
2023-05-22T18:03:20.224Z,3.70
2023-05-22T18:05:51.219Z,3.30
2023-05-22T18:08:18.803Z,3.50
2023-05-22T18:10:46.352Z,4.70
2023-05-22T18:13:13.808Z,3.90
2023-05-22T18:15:41.275Z,3.40
2023-05-22T18:18:10.689Z,3.90
2023-05-22T18:20:39.637Z,3.90
2023-05-22T18:23:07.261Z,4.10
2023-05-22T18:25:34.608Z,3.80
2023-05-22T18:28:01.882Z,3.50
2023-05-22T18:30:29.305Z,3.60
2023-05-22T18:32:57.479Z,4.00
2023-05-22T18:35:25.005Z,4.00
2023-05-22T18:37:52.342Z,3.70
2023-05-22T18:40:19.728Z,4.30
2023-05-22T18:42:47.199Z,4.40
2023-05-22T18:45:14.724Z,3.70
2023-05-22T18:47:42.083Z,3.70
2023-05-22T18:50:09.977Z,4.00
2023-05-22T18:52:38.098Z,3.70
2023-05-22T18:55:05.845Z,3.90
2023-05-22T18:57:33.222Z,3.80
2023-05-22T19:00:00.964Z,3.90
2023-05-22T19:02:29.682Z,4.10
2023-05-22T19:04:58.194Z,3.70
2023-05-22T19:07:25.707Z,4.10
2023-05-22T19:09:57.100Z,4.60
2023-05-22T19:12:25.564Z,4.10
2023-05-22T19:14:52.949Z,4.00
2023-05-22T19:17:20.655Z,4.30
2023-05-22T19:19:48.186Z,4.30
2023-05-22T19:22:17.920Z,4.50
2023-05-22T19:24:48.462Z,3.90
2023-05-22T19:27:15.936Z,5.60
2023-05-22T19:29:43.265Z,5.30
2023-05-22T19:32:10.582Z,5.30
2023-05-22T19:34:37.888Z,5.80
2023-05-22T19:37:07.561Z,5.90
2023-05-22T19:39:34.905Z,6.30
2023-05-22T19:42:02.294Z,6.60
2023-05-22T19:44:29.582Z,7.40
2023-05-22T19:46:57.313Z,6.70
2023-05-22T19:49:24.667Z,6.10
2023-05-22T19:51:54.117Z,6.90
2023-05-22T19:54:22.808Z,6.70
2023-05-22T19:56:50.117Z,7.00
2023-05-22T20:00:22.795Z,7.00
2023-05-22T20:02:50.244Z,7.20
2023-05-22T20:05:17.689Z,8.20
2023-05-22T20:07:45.028Z,8.70
2023-05-22T20:10:12.668Z,8.60
2023-05-22T20:12:40.108Z,8.20
2023-05-22T20:15:08.266Z,8.40
2023-05-22T20:17:36.289Z,8.00
2023-05-22T20:20:04.527Z,8.90
2023-05-22T20:22:31.866Z,8.90
2023-05-22T20:25:01.317Z,7.60
2023-05-22T20:27:30.045Z,8.50
2023-05-22T20:29:59.899Z,8.40
2023-05-22T20:32:27.740Z,6.30
2023-05-22T20:34:56.179Z,8.90
2023-05-22T20:37:23.815Z,8.00
2023-05-22T20:39:51.883Z,8.20
2023-05-22T20:42:19.210Z,8.80
2023-05-22T20:44:46.756Z,7.90
2023-05-22T20:47:14.034Z,8.30
2023-05-22T20:49:41.554Z,8.30
2023-05-22T20:52:10.080Z,8.40
2023-05-22T20:54:37.561Z,8.60
2023-05-22T20:57:05.541Z,7.90
2023-05-22T20:59:32.902Z,6.90
2023-05-22T21:02:01.350Z,8.80
2023-05-22T21:04:28.817Z,7.30
2023-05-22T21:06:56.475Z,7.00
2023-05-22T21:09:23.873Z,7.20
2023-05-22T21:11:51.128Z,7.10
2023-05-22T21:14:18.454Z,7.00
2023-05-22T21:16:45.780Z,6.60
2023-05-22T21:19:13.136Z,7.50
2023-05-22T21:21:41.887Z,7.10
2023-05-22T21:24:12.263Z,6.90
2023-05-22T21:26:40.807Z,7.60
2023-05-22T21:29:08.123Z,6.90
2023-05-22T21:31:35.804Z,7.10
2023-05-22T21:34:03.418Z,7.10
2023-05-22T21:36:31.874Z,6.60
2023-05-22T21:39:00.625Z,6.40
2023-05-22T21:41:28.052Z,6.30
2023-05-22T21:43:55.442Z,6.40
2023-05-22T21:46:22.761Z,6.60
2023-05-22T21:48:50.267Z,6.20
2023-05-22T21:51:17.617Z,6.70
2023-05-22T21:53:45.518Z,6.50
2023-05-22T21:56:12.780Z,6.70
2023-05-22T21:58:40.185Z,6.90
2023-05-22T22:01:07.740Z,7.20
2023-05-22T22:03:35.251Z,6.70
2023-05-22T22:06:02.617Z,6.20
2023-05-22T22:08:30.117Z,6.50
2023-05-22T22:10:58.423Z,6.70
2023-05-22T22:13:25.718Z,6.90
2023-05-22T22:15:53.575Z,5.90
2023-05-22T22:18:20.993Z,6.50
2023-05-22T22:20:54.173Z,6.60
2023-05-22T22:23:22.047Z,7.10
2023-05-22T22:25:49.833Z,6.30
2023-05-22T22:28:17.267Z,6.40
2023-05-22T22:30:44.602Z,6.50
2023-05-22T22:33:11.985Z,6.80
2023-05-22T22:35:40.615Z,7.00
2023-05-22T22:38:08.201Z,6.70
2023-05-22T22:40:35.502Z,6.30
2023-05-22T22:43:03.797Z,6.70
2023-05-22T22:45:31.442Z,6.60
2023-05-22T22:48:00.682Z,6.10
2023-05-22T22:50:28.346Z,6.90
2023-05-22T22:52:55.723Z,5.90
2023-05-22T22:55:23.178Z,6.20
2023-05-22T22:57:51.090Z,6.30
2023-05-22T23:00:19.348Z,6.70
2023-05-22T23:02:46.946Z,6.10
2023-05-22T23:05:15.015Z,6.50
2023-05-22T23:07:44.405Z,5.80
2023-05-22T23:10:17.186Z,6.40
2023-05-22T23:12:44.689Z,6.00
2023-05-22T23:15:13.459Z,5.80
2023-05-22T23:17:41.460Z,5.80
2023-05-22T23:20:10.328Z,6.00
2023-05-22T23:22:37.807Z,5.70
2023-05-22T23:25:05.638Z,5.90
2023-05-22T23:27:35.204Z,5.50
2023-05-22T23:30:06.378Z,5.90
2023-05-22T23:32:33.764Z,5.60
2023-05-22T23:35:01.089Z,5.50
2023-05-22T23:37:28.379Z,5.80
2023-05-22T23:39:55.688Z,5.80
2023-05-22T23:42:23.197Z,5.30
2023-05-22T23:44:50.534Z,5.20
2023-05-22T23:47:18.830Z,5.10
2023-05-22T23:49:46.134Z,4.60
2023-05-22T23:52:13.640Z,5.30
2023-05-22T23:54:40.851Z,4.70
2023-05-22T23:57:08.463Z,4.70
2023-05-22T23:59:35.744Z,4.30
